createdAt,value
2022-08-20T00:00:44.420Z,5.35
2022-08-20T00:05:52.374Z,6.07
2022-08-20T00:11:02.429Z,5.40
2022-08-20T00:16:09.063Z,6.32
2022-08-20T00:21:18.791Z,5.40
2022-08-20T00:26:23.975Z,5.57
2022-08-20T00:31:29.336Z,5.40
2022-08-20T00:36:33.376Z,5.30
2022-08-20T00:41:37.524Z,5.38
2022-08-20T00:46:44.773Z,5.15
2022-08-20T00:51:54.566Z,4.97
2022-08-20T00:57:03.603Z,5.88
2022-08-20T01:02:12.932Z,4.60
2022-08-20T01:07:20.543Z,5.03
2022-08-20T01:12:25.210Z,5.38
2022-08-20T01:17:34.085Z,5.55
2022-08-20T01:28:06.840Z,5.10
2022-08-20T01:33:11.547Z,4.85
2022-08-20T01:38:15.607Z,4.88
2022-08-20T01:43:21.438Z,4.60
2022-08-20T01:48:27.385Z,4.93
2022-08-20T01:53:34.363Z,5.53
2022-08-20T01:58:42.401Z,5.38
2022-08-20T02:03:46.394Z,5.53
2022-08-20T02:08:51.283Z,5.50
2022-08-20T02:13:58.426Z,4.78
2022-08-20T02:19:09.472Z,5.15
2022-08-20T02:24:13.651Z,5.47
2022-08-20T02:29:19.567Z,5.85
2022-08-20T02:34:23.594Z,5.10
2022-08-20T02:39:28.004Z,5.50
2022-08-20T02:44:33.753Z,6.35
2022-08-20T02:49:37.802Z,6.32
2022-08-20T02:54:42.023Z,6.38
2022-08-20T02:59:47.820Z,7.20
2022-08-20T03:04:51.835Z,6.13
2022-08-20T03:09:55.833Z,6.10
2022-08-20T03:15:01.272Z,5.88
2022-08-20T03:20:07.406Z,6.30
2022-08-20T03:25:12.794Z,6.60
2022-08-20T03:30:19.664Z,6.18
2022-08-20T03:35:27.127Z,6.50
2022-08-20T03:40:35.101Z,6.88
2022-08-20T03:45:42.760Z,6.63
2022-08-20T03:50:48.540Z,6.35
2022-08-20T03:55:58.230Z,6.65
2022-08-20T04:01:09.051Z,6.95
2022-08-20T04:06:32.399Z,6.30
2022-08-20T04:11:37.369Z,6.90
2022-08-20T04:16:43.894Z,6.75
2022-08-20T04:21:49.963Z,6.80
2022-08-20T04:26:55.076Z,7.90
2022-08-20T04:32:00.747Z,8.10
2022-08-20T04:37:17.356Z,6.72
2022-08-20T04:42:21.587Z,7.50
2022-08-20T04:47:34.687Z,7.30
2022-08-20T04:52:39.136Z,7.05
2022-08-20T04:57:43.355Z,6.63
2022-08-20T05:02:49.348Z,7.20
2022-08-20T05:07:53.453Z,7.72
2022-08-20T05:12:57.698Z,7.57
2022-08-20T05:18:08.115Z,7.40
2022-08-20T05:23:14.644Z,7.15
2022-08-20T05:28:22.223Z,7.93
2022-08-20T05:33:28.539Z,7.15
2022-08-20T05:38:35.088Z,6.68
2022-08-20T05:43:39.154Z,6.80
2022-08-20T05:48:44.780Z,7.60
2022-08-20T05:53:48.899Z,6.60
2022-08-20T05:58:53.255Z,6.63
2022-08-20T06:04:15.803Z,6.68
2022-08-20T06:09:31.898Z,6.75
2022-08-20T06:14:37.195Z,5.88
2022-08-20T06:19:44.402Z,6.22
2022-08-20T06:24:48.694Z,6.70
2022-08-20T06:29:53.488Z,6.15
2022-08-20T06:34:59.114Z,6.20
2022-08-20T06:40:09.511Z,6.47
2022-08-20T06:50:25.040Z,6.68
2022-08-20T06:55:30.703Z,7.30
2022-08-20T07:00:36.455Z,6.68
2022-08-20T07:05:45.602Z,6.75
2022-08-20T07:10:49.843Z,6.68
2022-08-20T07:15:54.258Z,5.50
2022-08-20T07:21:00.361Z,5.65
2022-08-20T07:26:04.599Z,5.57
2022-08-20T07:31:26.938Z,5.38
2022-08-20T07:36:33.394Z,5.25
2022-08-20T07:41:37.570Z,5.47
2022-08-20T07:46:41.684Z,5.43
2022-08-20T07:51:47.447Z,5.80
2022-08-20T07:56:51.400Z,4.00
2022-08-20T08:01:55.396Z,5.00
2022-08-20T08:07:01.446Z,5.13
2022-08-20T08:12:05.752Z,5.55
2022-08-20T08:17:11.559Z,5.20
2022-08-20T08:22:20.177Z,6.10
2022-08-20T08:27:24.243Z,5.50
2022-08-20T08:32:28.826Z,5.32
2022-08-20T08:37:34.457Z,4.93
2022-08-20T08:42:44.132Z,4.80
2022-08-20T08:47:48.197Z,4.72
2022-08-20T08:52:59.599Z,4.43
2022-08-20T08:58:16.887Z,4.82
2022-08-20T09:03:26.565Z,5.45
2022-08-20T09:08:37.238Z,5.00
2022-08-20T09:13:43.228Z,5.03
2022-08-20T09:18:47.172Z,4.20
2022-08-20T09:23:53.112Z,4.88
2022-08-20T09:28:57.484Z,4.25
2022-08-20T09:34:02.516Z,4.82
2022-08-20T09:39:07.911Z,5.30
2022-08-20T09:44:12.168Z,4.07
2022-08-20T09:49:20.167Z,4.18
2022-08-20T09:54:30.008Z,4.70
2022-08-20T09:59:35.704Z,3.92
2022-08-20T10:04:40.398Z,4.18
2022-08-20T10:09:46.862Z,4.43
2022-08-20T10:14:50.862Z,4.22
2022-08-20T10:19:55.320Z,4.32
2022-08-20T10:25:00.711Z,4.35
2022-08-20T10:30:07.111Z,3.63
2022-08-20T10:35:11.182Z,5.10
2022-08-20T10:40:17.005Z,4.63
2022-08-20T10:45:21.085Z,4.40
2022-08-20T10:50:25.476Z,4.53
2022-08-20T10:55:35.726Z,4.85
2022-08-20T11:00:40.226Z,4.68
2022-08-20T11:05:44.475Z,5.00
2022-08-20T11:10:50.402Z,4.65
2022-08-20T11:15:54.364Z,4.82
2022-08-20T11:20:58.800Z,4.05
2022-08-20T11:26:05.695Z,4.78
2022-08-20T11:31:09.653Z,4.45
2022-08-20T11:36:13.613Z,4.28
2022-08-20T11:41:19.089Z,4.35
2022-08-20T11:46:26.626Z,4.50
2022-08-20T11:51:34.648Z,4.47
2022-08-20T11:56:54.770Z,4.20
2022-08-20T12:02:03.259Z,4.22
2022-08-20T12:07:11.957Z,4.80
2022-08-20T12:12:19.394Z,4.03
2022-08-20T12:17:25.282Z,4.68
2022-08-20T12:22:30.182Z,4.57
2022-08-20T12:27:37.021Z,4.80
2022-08-20T12:32:42.349Z,3.83
2022-08-20T12:37:47.411Z,4.00
2022-08-20T12:42:52.921Z,3.75
2022-08-20T12:48:06.144Z,4.88
2022-08-20T12:53:11.134Z,3.83
2022-08-20T12:58:16.631Z,4.35
2022-08-20T13:03:22.133Z,3.47
2022-08-20T13:08:26.394Z,3.80
2022-08-20T13:13:32.235Z,3.38
2022-08-20T13:18:36.265Z,3.65
2022-08-20T13:23:40.324Z,3.70
2022-08-20T13:28:48.707Z,3.30
2022-08-20T13:38:58.865Z,3.08
2022-08-20T13:44:04.761Z,3.88
2022-08-20T13:49:08.769Z,3.97
2022-08-20T13:54:12.855Z,5.18
2022-08-20T13:59:18.403Z,5.32
2022-08-20T14:04:22.599Z,4.60
2022-08-20T14:09:26.694Z,5.80
2022-08-20T14:14:32.148Z,4.57
2022-08-20T14:19:39.012Z,4.35
2022-08-20T14:24:43.168Z,5.13
2022-08-20T14:29:50.047Z,5.10
2022-08-20T14:34:54.865Z,4.35
2022-08-20T14:40:01.183Z,4.78
2022-08-20T14:45:08.947Z,5.93
2022-08-20T14:50:16.495Z,4.50
2022-08-20T14:55:23.293Z,4.72
2022-08-20T15:00:33.913Z,6.22
2022-08-20T15:05:39.740Z,5.90
2022-08-20T15:10:44.632Z,6.45
2022-08-20T15:15:50.225Z,6.40
2022-08-20T15:20:54.825Z,6.55
2022-08-20T15:25:58.866Z,6.43
2022-08-20T15:31:10.897Z,6.38
2022-08-20T15:36:15.020Z,5.97
2022-08-20T15:41:19.137Z,5.68
2022-08-20T15:46:30.266Z,6.43
2022-08-20T15:51:44.460Z,6.00
2022-08-20T15:56:59.405Z,6.95
2022-08-20T16:02:20.657Z,6.80
2022-08-20T16:07:35.385Z,6.43
2022-08-20T16:12:41.688Z,6.63
2022-08-20T16:17:52.779Z,6.43
2022-08-20T16:22:57.710Z,7.05
2022-08-20T16:28:06.584Z,7.40
2022-08-20T16:33:21.596Z,6.93
2022-08-20T16:38:39.940Z,7.00
2022-08-20T16:43:54.374Z,6.55
2022-08-20T16:49:05.726Z,6.97
2022-08-20T16:54:11.182Z,7.07
2022-08-20T16:59:18.459Z,6.45
2022-08-20T17:04:33.092Z,7.28
2022-08-20T17:09:43.521Z,7.60
2022-08-20T17:14:50.980Z,9.52
2022-08-20T17:20:00.946Z,8.50
2022-08-20T17:25:15.030Z,8.30
2022-08-20T17:30:24.817Z,8.98
2022-08-20T17:35:34.350Z,10.80
2022-08-20T17:40:45.990Z,11.07
2022-08-20T17:45:50.986Z,6.82
2022-08-20T17:50:56.716Z,9.48
2022-08-20T17:56:04.288Z,8.55
2022-08-20T18:01:11.705Z,6.60
2022-08-20T18:06:30.629Z,7.93
2022-08-20T18:11:43.906Z,7.95
2022-08-20T18:17:03.162Z,12.90
2022-08-20T18:32:34.195Z,6.18
2022-08-20T18:37:40.346Z,4.57
2022-08-20T18:42:45.776Z,5.00
2022-08-20T18:47:49.816Z,5.72
2022-08-20T18:53:10.366Z,4.88
2022-08-20T18:58:16.617Z,5.00
2022-08-20T19:03:26.430Z,5.60
2022-08-20T19:08:44.074Z,7.57
2022-08-20T19:14:09.700Z,7.95
2022-08-20T19:19:16.686Z,8.00
2022-08-20T19:24:28.488Z,7.85
2022-08-20T19:29:37.187Z,7.40
2022-08-20T19:34:41.423Z,7.82
2022-08-20T19:39:46.941Z,7.03
2022-08-20T19:44:55.639Z,7.78
2022-08-20T19:50:09.891Z,7.35
2022-08-20T19:55:23.213Z,7.13
2022-08-20T20:00:29.810Z,7.60
2022-08-20T20:05:33.964Z,4.93
2022-08-20T20:10:40.247Z,4.13
2022-08-20T20:15:45.300Z,3.47
2022-08-20T20:20:57.427Z,3.63
2022-08-20T20:26:06.712Z,3.47
2022-08-20T20:31:13.933Z,2.75
2022-08-20T20:36:32.042Z,2.42
2022-08-20T20:41:38.297Z,2.40
2022-08-20T20:46:42.314Z,2.42
2022-08-20T20:51:55.777Z,2.53
2022-08-20T20:57:04.560Z,2.17
2022-08-20T21:02:08.832Z,2.13
2022-08-20T21:07:16.005Z,2.60
2022-08-20T21:12:22.368Z,2.42
2022-08-20T21:17:26.434Z,2.20
2022-08-20T21:22:30.605Z,2.63
2022-08-20T21:27:37.441Z,2.47
2022-08-20T21:32:41.625Z,2.55
2022-08-20T21:37:45.648Z,2.70
2022-08-20T21:42:51.287Z,3.40
2022-08-20T21:47:55.643Z,2.15
2022-08-20T21:53:00.239Z,2.75
2022-08-20T21:58:06.158Z,2.17
2022-08-20T22:03:10.289Z,2.42
2022-08-20T22:08:18.448Z,2.83
2022-08-20T22:13:24.933Z,3.38
2022-08-20T22:18:29.011Z,2.95
2022-08-20T22:23:33.055Z,2.70
2022-08-20T22:28:39.073Z,2.85
2022-08-20T22:33:43.804Z,2.70
2022-08-20T22:38:47.894Z,3.08
2022-08-20T22:44:00.174Z,2.13
2022-08-20T22:49:05.788Z,2.28
2022-08-20T22:54:12.585Z,2.78
2022-08-20T22:59:17.984Z,3.38
2022-08-20T23:04:26.818Z,2.50
2022-08-20T23:09:31.381Z,2.63
2022-08-20T23:14:36.884Z,2.17
2022-08-20T23:19:41.960Z,2.45
2022-08-20T23:24:46.381Z,2.45
2022-08-20T23:29:52.176Z,2.92
2022-08-20T23:34:56.149Z,2.35
2022-08-20T23:40:00.378Z,2.38
2022-08-20T23:45:07.338Z,2.60
2022-08-20T23:50:14.340Z,2.40
2022-08-20T23:55:18.672Z,2.55
